createdAt,value
2022-11-09T00:01:05.627Z,25.42
2022-11-09T00:03:33.994Z,25.35
2022-11-09T00:06:02.467Z,26.02
2022-11-09T00:08:30.666Z,26.42
2022-11-09T00:11:29.790Z,25.70
2022-11-09T00:13:57.901Z,25.40
2022-11-09T00:16:26.340Z,25.90
2022-11-09T00:18:56.155Z,25.45
2022-11-09T00:21:25.757Z,26.33
2022-11-09T00:23:54.114Z,26.15
2022-11-09T00:26:23.029Z,26.80
2022-11-09T00:28:51.471Z,25.73
2022-11-09T00:31:22.031Z,25.60
2022-11-09T00:33:54.464Z,26.65
2022-11-09T00:36:24.836Z,27.00
2022-11-09T00:38:55.771Z,26.83
2022-11-09T00:41:25.175Z,27.30
2022-11-09T00:43:53.541Z,26.23
2022-11-09T00:46:22.489Z,27.35
2022-11-09T00:48:55.904Z,26.58
2022-11-09T00:51:25.232Z,26.55
2022-11-09T00:53:54.964Z,26.10
2022-11-09T00:56:24.694Z,26.27
2022-11-09T00:58:55.979Z,26.05
2022-11-09T01:03:53.262Z,25.25
2022-11-09T01:06:40.128Z,26.02
2022-11-09T01:09:11.292Z,26.07
2022-11-09T01:11:40.034Z,26.33
2022-11-09T01:14:09.444Z,26.20
2022-11-09T01:16:39.286Z,25.45
2022-11-09T01:19:07.737Z,26.13
2022-11-09T01:21:36.276Z,25.45
2022-11-09T01:24:04.732Z,25.65
2022-11-09T01:26:33.957Z,25.25
2022-11-09T01:29:02.144Z,26.25
2022-11-09T01:31:30.669Z,26.35
2022-11-09T01:33:58.896Z,25.83
2022-11-09T01:36:27.442Z,25.77
2022-11-09T01:38:56.048Z,25.73
2022-11-09T01:41:28.208Z,25.08
2022-11-09T01:44:10.764Z,25.63
2022-11-09T01:46:58.584Z,24.60
2022-11-09T01:49:53.412Z,24.30
2022-11-09T01:52:38.919Z,24.42
2022-11-09T01:55:15.066Z,24.88
2022-11-09T01:57:56.293Z,25.05
2022-11-09T02:00:24.680Z,24.92
2022-11-09T02:02:58.966Z,24.17
2022-11-09T02:05:33.719Z,23.73
2022-11-09T02:08:05.458Z,23.55
2022-11-09T02:10:47.311Z,24.35
2022-11-09T02:13:18.606Z,23.10
2022-11-09T02:15:49.755Z,24.33
2022-11-09T02:18:19.771Z,24.25
2022-11-09T02:20:54.048Z,23.08
2022-11-09T02:23:26.090Z,23.75
2022-11-09T02:26:00.901Z,22.98
2022-11-09T02:28:32.311Z,23.65
2022-11-09T02:31:01.818Z,23.75
2022-11-09T02:33:40.138Z,23.40
2022-11-09T02:36:08.550Z,22.65
2022-11-09T02:38:37.872Z,23.27
2022-11-09T02:41:06.681Z,23.63
2022-11-09T02:43:37.009Z,22.95
2022-11-09T02:46:05.977Z,22.63
2022-11-09T02:48:35.189Z,22.15
2022-11-09T02:51:03.537Z,23.55
2022-11-09T02:53:32.360Z,23.73
2022-11-09T02:56:05.625Z,22.00
2022-11-09T02:58:34.479Z,21.27
2022-11-09T03:01:02.843Z,22.45
2022-11-09T03:03:31.696Z,21.85
2022-11-09T03:05:59.956Z,21.58
2022-11-09T03:08:29.175Z,21.60
2022-11-09T03:10:59.773Z,21.08
2022-11-09T03:13:28.555Z,21.30
2022-11-09T03:15:57.320Z,21.73
2022-11-09T03:18:26.009Z,21.42
2022-11-09T03:20:54.166Z,21.40
2022-11-09T03:23:22.819Z,20.40
2022-11-09T03:25:51.309Z,20.27
2022-11-09T03:28:19.895Z,22.42
2022-11-09T03:30:48.160Z,22.38
2022-11-09T03:33:17.094Z,22.55
2022-11-09T03:35:45.772Z,22.45
2022-11-09T03:38:19.850Z,21.77
2022-11-09T03:40:49.100Z,22.25
2022-11-09T03:43:19.280Z,23.13
2022-11-09T03:45:48.378Z,22.20
2022-11-09T03:48:17.043Z,21.50
2022-11-09T03:50:45.260Z,21.48
2022-11-09T03:53:14.233Z,22.00
2022-11-09T03:55:42.611Z,21.60
2022-11-09T03:58:13.353Z,21.63
2022-11-09T04:00:41.512Z,21.60
2022-11-09T04:03:10.105Z,21.52
2022-11-09T04:05:38.269Z,21.08
2022-11-09T04:08:07.141Z,22.70
2022-11-09T04:10:35.344Z,22.17
2022-11-09T04:13:03.928Z,22.52
2022-11-09T04:15:32.023Z,22.15
2022-11-09T04:18:02.510Z,22.45
2022-11-09T04:20:31.849Z,21.77
2022-11-09T04:23:03.113Z,22.15
2022-11-09T04:25:39.685Z,21.15
2022-11-09T04:28:12.003Z,21.35
2022-11-09T04:33:09.699Z,21.13
2022-11-09T04:35:38.581Z,21.63
2022-11-09T04:38:10.783Z,21.50
2022-11-09T04:43:13.436Z,21.73
2022-11-09T04:45:42.216Z,21.00
2022-11-09T04:48:11.470Z,21.65
2022-11-09T04:50:39.794Z,20.95
2022-11-09T04:53:14.092Z,20.98
2022-11-09T04:55:42.530Z,21.77
2022-11-09T04:58:12.333Z,21.67
2022-11-09T05:00:41.011Z,21.75
2022-11-09T05:03:09.825Z,21.88
2022-11-09T05:05:41.655Z,21.92
2022-11-09T05:08:13.205Z,21.42
2022-11-09T05:10:41.482Z,21.27
2022-11-09T05:13:12.409Z,22.08
2022-11-09T05:15:41.278Z,24.60
2022-11-09T05:18:10.501Z,27.75
2022-11-09T05:20:38.747Z,24.15
2022-11-09T05:23:25.939Z,24.13
2022-11-09T05:25:54.346Z,23.20
2022-11-09T05:28:26.192Z,21.58
2022-11-09T05:30:54.285Z,21.35
2022-11-09T05:33:23.198Z,21.23
2022-11-09T05:35:53.990Z,23.13
2022-11-09T05:38:23.706Z,23.17
2022-11-09T05:40:52.766Z,22.40
2022-11-09T05:43:22.259Z,22.05
2022-11-09T05:45:50.499Z,21.33
2022-11-09T05:48:19.058Z,24.92
2022-11-09T05:50:47.210Z,25.42
2022-11-09T05:53:24.938Z,24.55
2022-11-09T05:55:53.045Z,23.02
2022-11-09T05:58:21.957Z,23.48
2022-11-09T06:00:51.314Z,23.45
2022-11-09T06:03:20.079Z,21.92
2022-11-09T06:05:48.446Z,22.52
2022-11-09T06:08:18.114Z,22.00
2022-11-09T06:10:46.228Z,22.20
2022-11-09T06:13:14.789Z,21.50
2022-11-09T06:15:42.987Z,21.55
2022-11-09T06:18:11.537Z,21.10
2022-11-09T06:20:39.746Z,20.98
2022-11-09T06:23:08.713Z,22.70
2022-11-09T06:25:37.235Z,21.75
2022-11-09T06:28:05.774Z,22.50
2022-11-09T06:30:33.894Z,22.45
2022-11-09T06:33:03.562Z,21.80
2022-11-09T06:35:31.757Z,21.88
2022-11-09T06:38:00.818Z,22.27
2022-11-09T06:40:55.342Z,22.33
2022-11-09T06:43:24.835Z,22.90
2022-11-09T06:45:53.311Z,23.27
2022-11-09T06:48:22.488Z,21.52
2022-11-09T06:50:50.805Z,22.40
2022-11-09T06:53:19.859Z,22.67
2022-11-09T06:55:50.863Z,23.08
2022-11-09T06:58:19.998Z,22.77
2022-11-09T07:00:48.280Z,22.63
2022-11-09T07:03:19.103Z,22.33
2022-11-09T07:05:49.088Z,22.63
2022-11-09T07:08:18.139Z,22.27
2022-11-09T07:10:46.657Z,22.55
2022-11-09T07:13:15.463Z,24.25
2022-11-09T07:15:43.938Z,24.67
2022-11-09T07:18:13.445Z,23.95
2022-11-09T07:20:41.745Z,22.33
2022-11-09T07:23:10.409Z,22.92
2022-11-09T07:25:38.706Z,22.85
2022-11-09T07:28:09.206Z,22.52
2022-11-09T07:30:38.324Z,23.33
2022-11-09T07:33:22.854Z,22.35
2022-11-09T07:35:51.408Z,22.67
2022-11-09T07:38:20.191Z,22.38
2022-11-09T07:40:48.400Z,22.58
2022-11-09T07:43:17.603Z,22.52
2022-11-09T07:45:51.036Z,22.38
2022-11-09T07:48:19.796Z,22.15
2022-11-09T07:50:48.137Z,22.02
2022-11-09T07:53:17.313Z,22.35
2022-11-09T07:55:45.678Z,22.25
2022-11-09T07:58:15.954Z,22.48
2022-11-09T08:00:44.745Z,21.27
2022-11-09T08:03:13.356Z,21.50
2022-11-09T08:05:41.564Z,21.52
2022-11-09T08:08:12.235Z,21.20
2022-11-09T08:10:40.967Z,21.55
2022-11-09T08:13:14.791Z,20.35
2022-11-09T08:15:42.955Z,21.55
2022-11-09T08:18:20.435Z,19.95
2022-11-09T08:20:50.035Z,21.17
2022-11-09T08:23:21.238Z,21.95
2022-11-09T08:25:50.635Z,21.63
2022-11-09T08:28:19.724Z,21.02
2022-11-09T08:30:56.932Z,20.88
2022-11-09T08:33:27.679Z,21.25
2022-11-09T08:35:56.760Z,20.17
2022-11-09T08:38:25.498Z,21.25
2022-11-09T08:40:58.327Z,20.05
2022-11-09T08:43:27.181Z,20.33
2022-11-09T08:45:55.323Z,20.55
2022-11-09T08:48:23.947Z,20.27
2022-11-09T08:50:57.628Z,21.83
2022-11-09T08:53:28.211Z,22.75
2022-11-09T08:55:57.288Z,22.70
2022-11-09T08:58:26.081Z,20.70
2022-11-09T09:00:54.356Z,19.83
2022-11-09T09:03:22.836Z,20.63
2022-11-09T09:05:51.871Z,19.85
2022-11-09T09:08:23.504Z,19.63
2022-11-09T09:10:52.048Z,20.08
2022-11-09T09:13:22.930Z,19.20
2022-11-09T09:15:51.185Z,21.30
2022-11-09T09:18:20.243Z,19.90
2022-11-09T09:20:48.826Z,20.33
2022-11-09T09:23:17.709Z,21.08
2022-11-09T09:25:46.093Z,20.63
2022-11-09T09:28:15.937Z,20.30
2022-11-09T09:30:44.356Z,20.40
2022-11-09T09:33:12.944Z,19.70
2022-11-09T09:35:41.115Z,19.17
2022-11-09T09:38:10.162Z,19.38
2022-11-09T09:40:48.584Z,20.27
2022-11-09T09:43:28.330Z,19.95
2022-11-09T09:45:58.456Z,19.25
2022-11-09T09:48:38.417Z,19.55
2022-11-09T09:51:45.729Z,19.48
2022-11-09T09:54:21.490Z,19.42
2022-11-09T09:56:51.395Z,18.73
2022-11-09T09:59:20.115Z,18.83
2022-11-09T10:01:49.393Z,19.38
2022-11-09T10:04:19.792Z,18.75
2022-11-09T10:07:12.275Z,18.13
2022-11-09T10:10:20.859Z,19.08
2022-11-09T10:13:12.545Z,18.52
2022-11-09T10:16:12.508Z,17.85
2022-11-09T10:19:02.473Z,17.95
2022-11-09T10:21:55.212Z,18.15
2022-11-09T10:24:36.796Z,21.13
2022-11-09T10:27:36.963Z,18.63
2022-11-09T10:30:15.823Z,17.02
2022-11-09T10:32:48.771Z,17.17
2022-11-09T10:35:37.940Z,16.63
2022-11-09T10:38:18.261Z,16.33
2022-11-09T10:41:06.696Z,17.30
2022-11-09T10:43:53.493Z,16.60
2022-11-09T10:47:07.314Z,17.10
2022-11-09T10:50:23.351Z,15.85
2022-11-09T10:53:17.319Z,16.52
2022-11-09T10:56:21.235Z,16.88
2022-11-09T10:59:50.556Z,16.70
2022-11-09T11:02:46.718Z,17.17
2022-11-09T11:05:36.847Z,16.58
2022-11-09T11:08:33.817Z,16.52
2022-11-09T11:11:34.195Z,16.77
2022-11-09T11:14:35.381Z,16.07
2022-11-09T11:17:25.558Z,17.38
2022-11-09T11:20:38.766Z,17.25
2022-11-09T11:23:26.642Z,17.55
2022-11-09T11:26:20.108Z,17.83
2022-11-09T11:29:18.957Z,18.17
2022-11-09T11:32:12.339Z,18.35
2022-11-09T11:35:00.839Z,18.17
2022-11-09T11:38:14.494Z,17.83
2022-11-09T11:41:17.109Z,17.90
2022-11-09T11:44:10.077Z,18.23
2022-11-09T11:47:09.495Z,18.13
2022-11-09T11:50:20.235Z,18.48
2022-11-09T11:53:43.510Z,17.90
2022-11-09T11:56:48.001Z,18.45
2022-11-09T11:59:49.814Z,17.80
2022-11-09T12:03:22.163Z,18.33
2022-11-09T12:06:21.555Z,18.02
2022-11-09T12:09:30.012Z,17.77
2022-11-09T12:12:22.547Z,18.10
2022-11-09T12:15:31.857Z,17.88
2022-11-09T12:18:26.930Z,17.73
2022-11-09T12:21:21.727Z,17.75
2022-11-09T12:24:23.287Z,17.48
2022-11-09T12:27:32.210Z,18.00
2022-11-09T12:30:24.008Z,18.52
2022-11-09T12:33:19.402Z,17.52
2022-11-09T12:36:19.215Z,17.95
2022-11-09T12:39:39.180Z,17.10
2022-11-09T12:42:38.625Z,17.65
2022-11-09T12:45:38.724Z,17.10
2022-11-09T12:48:35.037Z,17.98
2022-11-09T12:51:22.780Z,17.77
2022-11-09T12:54:11.951Z,18.35
2022-11-09T12:57:04.509Z,17.85
2022-11-09T12:59:59.639Z,18.13
2022-11-09T13:02:59.748Z,17.95
2022-11-09T13:05:47.780Z,17.98
2022-11-09T13:08:35.361Z,18.02
2022-11-09T13:11:42.558Z,17.88
2022-11-09T13:14:38.424Z,18.48
2022-11-09T13:17:25.273Z,18.25
2022-11-09T13:20:54.774Z,20.63
2022-11-09T13:24:03.692Z,20.95
2022-11-09T13:26:56.517Z,21.33
2022-11-09T13:29:43.163Z,19.25
2022-11-09T13:32:33.688Z,18.05
2022-11-09T13:35:42.324Z,18.33
2022-11-09T13:38:30.968Z,18.67
2022-11-09T13:41:32.440Z,18.58
2022-11-09T13:44:25.470Z,17.80
2022-11-09T13:47:34.546Z,19.13
2022-11-09T13:50:30.294Z,18.77
2022-11-09T13:53:38.834Z,18.40
2022-11-09T13:56:37.530Z,17.63
2022-11-09T13:59:29.541Z,17.92
2022-11-09T14:02:20.777Z,18.15
2022-11-09T14:05:33.295Z,19.10
2022-11-09T14:08:49.046Z,18.50
2022-11-09T14:11:49.649Z,18.65
2022-11-09T14:14:47.858Z,19.63
2022-11-09T14:18:01.838Z,19.73
2022-11-09T14:21:23.209Z,20.25
2022-11-09T14:24:20.051Z,21.97
2022-11-09T14:27:09.872Z,20.58
2022-11-09T14:30:02.625Z,20.27
2022-11-09T14:32:52.049Z,19.13
2022-11-09T14:35:39.419Z,20.10
2022-11-09T14:38:37.003Z,19.70
2022-11-09T14:41:26.779Z,19.10
2022-11-09T14:44:24.828Z,19.55
2022-11-09T14:47:18.425Z,19.30
2022-11-09T14:50:09.679Z,27.67
2022-11-09T14:52:58.436Z,23.58
2022-11-09T15:15:22.465Z,25.50
2022-11-09T15:18:23.395Z,23.60
2022-11-09T15:21:30.948Z,21.30
2022-11-09T15:24:19.385Z,21.75
2022-11-09T15:27:33.721Z,22.42
2022-11-09T15:30:48.939Z,23.23
2022-11-09T15:33:57.749Z,22.95
2022-11-09T15:36:46.100Z,23.67
2022-11-09T15:43:09.159Z,24.02
2022-11-09T15:45:59.210Z,24.15
2022-11-09T15:48:46.483Z,23.80
2022-11-09T15:51:36.869Z,25.17
2022-11-09T15:54:24.667Z,24.02
2022-11-09T15:57:18.832Z,25.08
2022-11-09T16:00:11.335Z,26.40
2022-11-09T16:06:21.760Z,24.50
2022-11-09T16:09:08.663Z,24.38
2022-11-09T16:11:55.357Z,26.67
2022-11-09T16:14:42.388Z,24.38
2022-11-09T16:17:38.239Z,24.23
2022-11-09T16:20:29.477Z,25.02
2022-11-09T16:23:17.356Z,26.08
2022-11-09T16:26:58.225Z,25.55
2022-11-09T16:29:45.094Z,25.92
2022-11-09T16:32:36.122Z,26.10
2022-11-09T16:35:27.949Z,25.38
2022-11-09T16:38:18.558Z,25.05
2022-11-09T16:41:30.738Z,25.20
2022-11-09T16:44:22.156Z,24.90
2022-11-09T16:47:12.893Z,24.20
2022-11-09T16:50:00.395Z,24.58
2022-11-09T16:52:47.704Z,32.97
2022-11-09T16:55:35.493Z,23.85
2022-11-09T16:58:27.004Z,24.42
2022-11-09T17:01:19.009Z,24.63
2022-11-09T17:04:09.061Z,23.40
2022-11-09T17:06:56.140Z,24.00
2022-11-09T17:09:42.966Z,24.17
2022-11-09T17:12:31.408Z,23.88
2022-11-09T17:15:18.261Z,24.45
2022-11-09T17:18:05.562Z,24.65
2022-11-09T17:20:52.121Z,26.05
2022-11-09T17:23:39.402Z,26.65
2022-11-09T17:26:27.184Z,27.70
2022-11-09T17:29:15.313Z,28.92
2022-11-09T17:32:02.213Z,32.53
2022-11-09T17:34:53.858Z,31.95
2022-11-09T17:37:40.732Z,29.00
2022-11-09T17:40:27.869Z,28.40
2022-11-09T17:43:22.177Z,29.55
2022-11-09T17:46:15.386Z,29.70
2022-11-09T17:49:27.217Z,29.65
2022-11-09T17:52:39.507Z,29.17
2022-11-09T17:55:26.552Z,30.52
2022-11-09T17:58:13.120Z,30.45
2022-11-09T18:01:11.888Z,31.35
2022-11-09T18:03:58.861Z,30.92
2022-11-09T18:06:51.066Z,30.98
2022-11-09T18:09:42.109Z,30.90
2022-11-09T18:12:29.708Z,32.10
2022-11-09T18:15:16.531Z,31.05
2022-11-09T18:18:04.243Z,32.22
2022-11-09T18:20:51.234Z,32.03
2022-11-09T18:23:38.469Z,34.88
2022-11-09T18:26:27.787Z,31.67
2022-11-09T18:29:15.308Z,32.75
2022-11-09T18:32:01.954Z,30.23
2022-11-09T18:34:49.063Z,30.42
2022-11-09T18:37:37.134Z,30.80
2022-11-09T18:40:24.028Z,30.73
2022-11-09T18:43:10.812Z,31.85
2022-11-09T18:46:03.222Z,32.17
2022-11-09T18:48:54.430Z,31.95
2022-11-09T18:51:42.843Z,31.73
2022-11-09T18:54:29.842Z,31.92
2022-11-09T18:57:19.803Z,32.70
2022-11-09T19:00:07.554Z,33.25
2022-11-09T19:02:54.856Z,32.53
2022-11-09T19:05:43.626Z,32.42
2022-11-09T19:08:49.337Z,32.40
2022-11-09T19:11:39.918Z,32.75
2022-11-09T19:14:28.113Z,33.78
2022-11-09T19:17:16.231Z,34.55
2022-11-09T19:20:04.581Z,33.13
2022-11-09T19:22:51.123Z,35.63
2022-11-09T19:25:39.599Z,37.88
2022-11-09T19:28:26.028Z,33.25
2022-11-09T19:31:18.687Z,34.13
2022-11-09T19:34:05.195Z,34.63
2022-11-09T19:36:52.238Z,33.08
2022-11-09T19:39:43.108Z,32.42
2022-11-09T19:42:30.504Z,40.93
2022-11-09T19:45:17.138Z,34.88
2022-11-09T19:48:04.291Z,32.38
2022-11-09T19:50:52.853Z,33.17
2022-11-09T19:53:42.576Z,34.70
2022-11-09T19:56:31.249Z,33.50
2022-11-09T19:59:21.030Z,33.28
2022-11-09T20:02:11.760Z,31.67
2022-11-09T20:04:58.658Z,33.08
2022-11-09T20:07:45.354Z,33.63
2022-11-09T20:10:36.432Z,33.22
2022-11-09T20:13:24.547Z,34.28
2022-11-09T20:16:22.861Z,33.80
2022-11-09T20:19:12.075Z,33.65
2022-11-09T20:21:59.926Z,33.45
2022-11-09T20:24:46.891Z,33.90
2022-11-09T20:27:35.004Z,33.70
2022-11-09T20:30:21.799Z,34.22
2022-11-09T20:33:10.139Z,34.03
2022-11-09T20:35:57.291Z,35.22
2022-11-09T20:38:44.168Z,34.60
2022-11-09T20:41:31.649Z,34.40
2022-11-09T20:44:18.729Z,34.40
2022-11-09T20:47:05.525Z,34.58
2022-11-09T20:49:52.894Z,34.30
2022-11-09T20:53:04.259Z,33.63
2022-11-09T20:56:45.867Z,34.08
2022-11-09T20:59:35.841Z,33.08
2022-11-09T21:02:27.550Z,33.65
2022-11-09T21:05:41.398Z,33.97
2022-11-09T21:08:48.004Z,34.47
2022-11-09T21:14:22.017Z,37.83
2022-11-09T21:17:11.709Z,35.05
2022-11-09T21:19:58.768Z,35.25
2022-11-09T21:23:06.351Z,33.70
2022-11-09T21:26:11.653Z,34.83
2022-11-09T21:29:20.666Z,34.58
2022-11-09T21:32:08.635Z,35.22
2022-11-09T21:34:55.705Z,34.60
2022-11-09T21:37:49.815Z,33.80
2022-11-09T21:41:25.597Z,34.53
2022-11-09T21:44:13.163Z,34.00
2022-11-09T21:47:00.136Z,35.10
2022-11-09T21:49:47.074Z,35.15
2022-11-09T21:52:33.933Z,35.72
2022-11-09T21:55:21.014Z,36.60
2022-11-09T21:58:33.307Z,37.13
2022-11-09T22:01:46.194Z,37.90
2022-11-09T22:04:33.843Z,38.47
2022-11-09T22:07:20.933Z,39.35
2022-11-09T22:10:33.082Z,37.55
2022-11-09T22:13:42.350Z,37.65
2022-11-09T22:16:32.587Z,40.10
2022-11-09T22:19:38.968Z,40.17
2022-11-09T22:22:29.500Z,36.22
2022-11-09T22:25:16.625Z,35.65
2022-11-09T22:28:03.161Z,36.53
2022-11-09T22:30:50.347Z,37.38
2022-11-09T22:33:37.662Z,37.63
2022-11-09T22:36:24.769Z,36.67
2022-11-09T22:39:11.503Z,38.25
2022-11-09T22:41:58.580Z,41.88
2022-11-09T22:44:45.409Z,36.17
2022-11-09T22:47:32.874Z,35.38
2022-11-09T22:50:44.674Z,34.42
2022-11-09T22:53:32.712Z,34.58
2022-11-09T22:56:19.616Z,34.97
2022-11-09T22:59:07.426Z,34.95
2022-11-09T23:01:54.272Z,34.95
2022-11-09T23:04:41.434Z,35.50
2022-11-09T23:07:28.232Z,33.63
2022-11-09T23:10:15.321Z,35.13
2022-11-09T23:13:02.692Z,36.15
2022-11-09T23:16:00.006Z,34.28
2022-11-09T23:18:53.940Z,33.88
2022-11-09T23:21:41.576Z,34.58
2022-11-09T23:24:47.451Z,34.13
2022-11-09T23:27:34.738Z,34.70
2022-11-09T23:30:22.639Z,33.65
2022-11-09T23:33:11.250Z,33.42
2022-11-09T23:35:59.954Z,32.55
2022-11-09T23:38:47.462Z,33.83
2022-11-09T23:41:33.909Z,34.10
2022-11-09T23:44:20.733Z,32.08
2022-11-09T23:47:07.505Z,32.03
2022-11-09T23:49:54.765Z,33.42
2022-11-09T23:52:41.508Z,32.67
2022-11-09T23:55:30.197Z,31.10
2022-11-09T23:58:17.026Z,31.75
